Time;durP1;ratioP1;P1;durP2;ratioP2;P2;SDS_P1;SDS_P2;PMS_P1;PMS_P2;Temp;Humidity;BMP_temperature;BMP_pressure;BME280_temperature;BME280_humidity;BME280_pressure;Samples;Min_cycle;Max_cycle;Signal;HPM_P1;HPM_P2
2022/06/11 00:00:16;;;;;;;16.77;5.30;;;;;;;19.11;54.49;98069.75;5051207;28;20458;-69
2022/06/11 00:02:41;;;;;;;15.77;6.13;;;;;;;19.08;54.60;98064.81;5055788;28;20273;-69
2022/06/11 00:05:07;;;;;;;18.10;6.73;;;;;;;19.03;54.99;98069.84;5049876;28;20525;-71
2022/06/11 00:07:34;;;;;;;15.00;6.37;;;;;;;18.95;54.92;98073.44;5051016;28;20629;-71
2022/06/11 00:09:59;;;;;;;23.60;6.67;;;;;;;18.92;54.85;98070.28;5050887;28;20461;-70
2022/06/11 00:12:26;;;;;;;20.33;8.00;;;;;;;18.92;54.92;98070.28;5051354;28;20509;-70
2022/06/11 00:14:52;;;;;;;21.80;8.00;;;;;;;18.86;55.31;98070.03;5052360;28;20218;-70
2022/06/11 00:17:20;;;;;;;22.40;8.00;;;;;;;18.83;55.36;98061.63;5054837;28;20504;-70
2022/06/11 00:19:46;;;;;;;23.03;8.83;;;;;;;18.84;55.21;98069.41;5055147;28;20859;-70
2022/06/11 00:22:12;;;;;;;20.03;7.73;;;;;;;18.76;55.55;98077.47;5055015;28;20449;-70
2022/06/11 00:24:38;;;;;;;13.20;7.17;;;;;;;18.58;55.75;98064.56;5054771;28;20220;-70
2022/06/11 00:27:04;;;;;;;17.50;7.73;;;;;;;18.58;55.85;98075.19;5054872;28;20425;-70
2022/06/11 00:29:32;;;;;;;14.17;6.70;;;;;;;18.65;55.50;98075.28;5053831;28;20198;-70
2022/06/11 00:31:58;;;;;;;10.67;5.93;;;;;;;18.68;55.42;98069.56;5054123;28;20433;-71
2022/06/11 00:34:24;;;;;;;13.47;6.63;;;;;;;18.72;55.37;98081.47;5054582;28;20425;-69
2022/06/11 00:36:50;;;;;;;9.53;5.60;;;;;;;18.71;55.48;98075.34;5057973;28;20264;-70
2022/06/11 00:39:19;;;;;;;14.33;5.27;;;;;;;18.68;55.57;98070.41;5054409;28;20281;-68
2022/06/11 00:41:47;;;;;;;9.47;5.43;;;;;;;18.70;55.32;98075.53;5054863;28;20432;-70
2022/06/11 00:44:14;;;;;;;11.20;4.90;;;;;;;18.63;55.27;98072.78;5052591;28;21041;-70
2022/06/11 00:46:42;;;;;;;8.87;5.27;;;;;;;18.58;55.53;98081.28;5054797;28;20423;-70
2022/06/11 00:49:28;;;;;;;8.70;4.63;;;;;;;18.60;55.49;98075.78;5036816;28;20463;-71
2022/06/11 00:52:13;;;;;;;8.40;5.20;;;;;;;18.59;55.41;98074.16;5052807;28;20444;-69
2022/06/11 00:54:41;;;;;;;11.83;4.47;;;;;;;18.57;55.46;98077.00;5053397;28;20428;-70
2022/06/11 00:57:07;;;;;;;4.83;3.93;;;;;;;18.45;55.55;98070.50;5052777;28;20540;-70
2022/06/11 00:59:39;;;;;;;8.70;4.43;;;;;;;18.41;55.82;98067.38;5053328;28;20604;-71
2022/06/11 01:02:05;;;;;;;8.83;3.97;;;;;;;18.47;55.75;98067.63;5060778;28;20424;-70
2022/06/11 01:04:36;;;;;;;8.10;3.73;;;;;;;18.46;55.27;98061.53;5061174;28;20955;-70
2022/06/11 01:07:16;;;;;;;8.90;3.70;;;;;;;18.33;55.05;98063.97;5054117;28;20924;-72
2022/06/11 01:10:14;;;;;;;6.83;3.80;;;;;;;18.35;55.35;98061.97;5053292;28;20456;-70
2022/06/11 01:12:46;;;;;;;7.50;3.60;;;;;;;18.29;55.76;98066.16;5048134;28;20425;-71
2022/06/11 01:15:16;;;;;;;12.00;4.10;;;;;;;18.17;56.11;98062.31;5053138;28;20525;-71
2022/06/11 01:18:14;;;;;;;3.77;3.40;;;;;;;18.24;55.90;98057.91;5053817;28;20524;-70
2022/06/11 01:21:09;;;;;;;7.87;3.77;;;;;;;18.27;56.08;98062.88;5043596;28;20448;-71
2022/06/11 01:23:52;;;;;;;8.47;3.27;;;;;;;18.27;55.83;98063.69;5046521;28;20433;-72
2022/06/11 01:26:20;;;;;;;5.50;3.77;;;;;;;18.21;56.10;98061.75;5052320;28;20426;-70
2022/06/11 01:29:08;;;;;;;8.87;3.13;;;;;;;18.16;55.98;98058.81;5054231;28;20461;-70
2022/06/11 01:31:54;;;;;;;5.40;3.40;;;;;;;18.17;55.95;98065.78;5052985;28;20454;-70
2022/06/11 01:34:29;;;;;;;4.80;3.10;;;;;;;18.10;55.74;98064.84;5051873;28;20477;-70
2022/06/11 01:37:01;;;;;;;3.37;2.87;;;;;;;17.96;56.38;98071.72;5056692;28;20469;-71
2022/06/11 01:39:56;;;;;;;4.00;3.40;;;;;;;17.99;56.13;98060.78;5042904;28;20825;-71
2022/06/11 01:42:50;;;;;;;3.90;3.27;;;;;;;18.01;55.88;98063.28;5048947;28;20461;-71
2022/06/11 01:45:26;;;;;;;3.40;3.10;;;;;;;18.03;55.67;98064.75;5035061;28;20915;-71
2022/06/11 01:47:53;;;;;;;4.73;3.13;;;;;;;18.01;55.74;98068.59;5053484;28;20432;-71
2022/06/11 01:50:22;;;;;;;3.53;2.83;;;;;;;17.88;56.04;98063.84;5052018;28;20956;-70
2022/06/11 01:53:17;;;;;;;3.33;3.03;;;;;;;17.93;55.66;98061.50;5034829;28;20468;-70
2022/06/11 01:56:10;;;;;;;4.03;3.27;;;;;;;17.85;55.77;98059.72;5021351;28;20540;-70
2022/06/11 01:58:43;;;;;;;7.50;3.60;;;;;;;17.91;55.73;98059.00;5028774;28;20457;-70
2022/06/11 02:01:14;;;;;;;3.60;3.20;;;;;;;17.89;55.78;98061.03;5051895;28;20851;-71
2022/06/11 02:04:09;;;;;;;5.00;2.80;;;;;;;17.92;55.86;98055.34;5060531;28;20434;-70
2022/06/11 02:06:57;;;;;;;8.37;3.30;;;;;;;17.89;55.64;98058.38;5045796;28;20869;-70
2022/06/11 02:10:00;;;;;;;3.10;2.80;;;;;;;17.90;55.71;98057.34;5051902;28;20461;-70
2022/06/11 02:12:47;;;;;;;5.10;3.17;;;;;;;17.89;55.56;98060.19;5052376;28;20436;-70
2022/06/11 02:15:21;;;;;;;4.23;3.73;;;;;;;17.93;55.33;98046.41;5051689;28;20855;-70
2022/06/11 02:17:50;;;;;;;4.30;2.97;;;;;;;17.91;55.73;98056.34;5052842;28;20440;-69
2022/06/11 02:20:19;;;;;;;6.30;3.20;;;;;;;17.83;55.68;98051.13;5051628;28;20453;-69
2022/06/11 02:22:53;;;;;;;3.50;2.90;;;;;;;17.69;56.04;98054.53;5053022;28;20438;-70
2022/06/11 02:25:51;;;;;;;5.60;3.03;;;;;;;17.70;55.91;98050.91;5052820;28;20417;-70
2022/06/11 02:28:25;;;;;;;3.73;2.83;;;;;;;17.61;56.50;98055.44;5051301;28;20459;-71
2022/06/11 02:30:52;;;;;;;5.87;3.27;;;;;;;17.59;56.59;98060.06;5057627;28;20450;-71
2022/06/11 02:33:19;;;;;;;3.87;2.77;;;;;;;17.60;56.27;98057.28;5054131;28;20429;-70
2022/06/11 02:35:50;;;;;;;3.33;3.03;;;;;;;17.59;56.44;98065.38;5056003;28;20575;-71
2022/06/11 02:38:19;;;;;;;4.97;3.40;;;;;;;17.57;56.32;98052.31;5049886;28;20862;-70
2022/06/11 02:40:48;;;;;;;4.90;3.60;;;;;;;17.59;56.27;98057.44;5052687;28;20495;-70
2022/06/11 02:43:13;;;;;;;7.73;3.60;;;;;;;17.58;56.48;98050.50;5052529;28;20429;-70
2022/06/11 02:45:39;;;;;;;4.17;2.93;;;;;;;17.53;56.84;98051.00;5051345;28;20966;-70
2022/06/11 02:48:05;;;;;;;4.80;3.20;;;;;;;17.48;56.92;98054.19;5051664;28;20261;-70
2022/06/11 02:50:33;;;;;;;6.03;2.80;;;;;;;17.49;56.55;98055.03;5051574;28;20198;-69
2022/06/11 02:53:00;;;;;;;5.33;3.03;;;;;;;17.42;56.77;98057.56;5052451;28;20434;-69
2022/06/11 02:55:26;;;;;;;3.27;2.90;;;;;;;17.41;56.78;98052.41;5052074;28;20426;-71
2022/06/11 02:57:52;;;;;;;4.00;3.10;;;;;;;17.42;56.88;98054.91;5052010;28;20778;-71
2022/06/11 03:00:25;;;;;;;5.07;2.93;;;;;;;17.47;56.76;98057.84;5045358;28;20214;-70
2022/06/11 03:02:51;;;;;;;3.33;3.03;;;;;;;17.48;56.37;98053.38;5057906;28;20412;-70
2022/06/11 03:05:20;;;;;;;7.03;2.87;;;;;;;17.49;56.26;98055.03;5052993;28;20428;-71
2022/06/11 03:07:47;;;;;;;4.63;2.90;;;;;;;17.46;56.34;98056.19;5046875;28;20549;-70
2022/06/11 03:10:14;;;;;;;4.97;2.90;;;;;;;17.48;56.36;98063.97;5039347;28;20468;-70
2022/06/11 03:12:39;;;;;;;4.23;3.00;;;;;;;17.45;56.31;98057.19;5056661;28;20508;-70
2022/06/11 03:15:05;;;;;;;7.40;2.97;;;;;;;17.45;56.30;98064.31;5071041;28;20524;-70
2022/06/11 03:17:31;;;;;;;3.57;2.93;;;;;;;17.48;56.39;98064.78;5067373;28;20226;-69
2022/06/11 03:19:57;;;;;;;9.67;3.60;;;;;;;17.50;55.91;98064.63;5052087;28;20495;-71
2022/06/11 03:22:22;;;;;;;8.70;3.10;;;;;;;17.49;55.80;98065.63;5062403;28;20268;-70
2022/06/11 03:24:48;;;;;;;7.87;3.37;;;;;;;17.45;55.76;98072.28;5071270;28;20214;-70
2022/06/11 03:27:15;;;;;;;11.80;3.67;;;;;;;17.42;56.14;98062.84;5066525;28;20182;-70
2022/06/11 03:29:41;;;;;;;9.63;4.30;;;;;;;17.44;56.07;98066.16;5053801;28;20207;-70
2022/06/11 03:32:07;;;;;;;8.53;3.43;;;;;;;17.47;56.11;98072.91;5068408;28;20923;-70
2022/06/11 03:34:33;;;;;;;6.40;3.50;;;;;;;17.44;55.80;98073.25;5036744;28;20748;-71
2022/06/11 03:36:59;;;;;;;8.27;3.23;;;;;;;17.45;56.07;98075.72;5066240;28;20539;-70
2022/06/11 03:39:25;;;;;;;10.10;3.67;;;;;;;17.43;55.90;98077.75;5055154;28;20202;-70
2022/06/11 03:41:53;;;;;;;4.30;3.10;;;;;;;17.44;56.14;98078.56;5064222;28;20840;-72
2022/06/11 03:44:19;;;;;;;8.10;4.03;;;;;;;17.44;55.99;98074.09;5070992;28;20503;-71
2022/06/11 03:46:44;;;;;;;6.93;3.43;;;;;;;17.34;56.42;98082.28;5058580;28;20426;-70
2022/06/11 03:49:10;;;;;;;5.17;3.60;;;;;;;17.37;56.49;98082.94;5067011;28;20437;-70
2022/06/11 03:51:35;;;;;;;7.20;4.00;;;;;;;17.32;56.58;98084.25;5069740;28;20178;-71
2022/06/11 03:54:01;;;;;;;6.80;3.30;;;;;;;17.31;56.58;98085.25;5076596;28;20593;-69
2022/06/11 03:56:27;;;;;;;5.67;3.37;;;;;;;17.37;56.36;98090.88;5057189;28;20187;-70
2022/06/11 03:58:53;;;;;;;8.00;3.67;;;;;;;17.40;56.23;98096.66;5072761;28;20679;-70
2022/06/11 04:01:19;;;;;;;8.17;4.13;;;;;;;17.37;56.81;98093.53;5077262;28;20651;-70
2022/06/11 04:03:46;;;;;;;6.83;3.57;;;;;;;17.33;57.08;98095.66;5069483;28;20424;-70
2022/06/11 04:06:12;;;;;;;5.03;3.90;;;;;;;17.35;57.25;98096.31;5070270;28;20432;-70
2022/06/11 04:08:38;;;;;;;4.70;3.30;;;;;;;17.40;57.27;98095.81;5069843;28;20424;-70
2022/06/11 04:11:05;;;;;;;5.60;4.40;;;;;;;17.45;57.35;98096.13;5070152;28;20795;-70
2022/06/11 04:13:32;;;;;;;4.80;4.10;;;;;;;17.48;57.08;98101.06;5076464;28;20456;-70
2022/06/11 04:15:59;;;;;;;4.60;4.20;;;;;;;17.50;57.06;98099.06;5060768;28;20507;-70
2022/06/11 04:18:38;;;;;;;7.60;3.80;;;;;;;17.50;56.88;98099.91;5058774;28;20843;-70
2022/06/11 04:21:12;;;;;;;10.90;4.30;;;;;;;17.57;56.62;98100.03;5076014;28;20435;-70
2022/06/11 04:23:39;;;;;;;6.50;4.00;;;;;;;17.58;55.79;98101.66;5077742;28;20417;-70
2022/06/11 04:26:07;;;;;;;6.23;3.70;;;;;;;17.64;55.63;98102.78;5060993;28;20491;-70
2022/06/11 04:28:34;;;;;;;9.60;3.50;;;;;;;17.70;55.64;98109.22;5078307;28;20459;-70
2022/06/11 04:31:01;;;;;;;3.83;3.43;;;;;;;17.71;55.11;98105.56;5078727;28;20435;-70
2022/06/11 04:33:26;;;;;;;5.93;3.60;;;;;;;17.76;55.09;98108.53;5074391;28;20786;-70
2022/06/11 04:35:52;;;;;;;5.53;3.50;;;;;;;17.82;55.19;98113.09;5064123;28;20459;-71
2022/06/11 04:38:18;;;;;;;4.93;3.07;;;;;;;17.81;55.08;98108.81;5077761;28;20186;-70
2022/06/11 04:40:44;;;;;;;3.80;3.23;;;;;;;17.85;54.72;98102.16;5069923;28;20745;-69
2022/06/11 04:43:09;;;;;;;3.67;3.33;;;;;;;17.88;54.84;98104.47;5072697;28;20187;-70
2022/06/11 04:45:36;;;;;;;3.83;3.43;;;;;;;17.98;54.53;98108.72;5078180;28;20741;-71
2022/06/11 04:48:02;;;;;;;8.30;3.00;;;;;;;17.95;54.76;98110.69;5077975;28;20201;-69
2022/06/11 04:50:27;;;;;;;3.50;3.00;;;;;;;18.01;54.51;98105.72;5072447;28;20441;-70
2022/06/11 04:52:53;;;;;;;4.43;3.57;;;;;;;18.06;54.59;98113.94;5065068;28;20961;-71
2022/06/11 04:55:20;;;;;;;5.30;3.70;;;;;;;18.06;54.60;98112.13;5078054;28;20202;-69
2022/06/11 04:57:45;;;;;;;3.30;2.93;;;;;;;18.16;54.63;98109.22;5077841;28;20236;-70
2022/06/11 05:00:15;;;;;;;4.40;3.00;;;;;;;18.24;54.41;98105.69;5064397;28;20454;-70
2022/06/11 05:02:40;;;;;;;4.30;3.20;;;;;;;18.25;54.30;98108.16;5069926;28;20187;-70
2022/06/11 05:05:06;;;;;;;3.70;3.40;;;;;;;18.35;54.63;98110.53;5071693;28;20574;-70
2022/06/11 05:07:32;;;;;;;3.90;3.17;;;;;;;18.42;54.37;98108.00;5072127;28;20587;-71
2022/06/11 05:09:58;;;;;;;3.10;2.80;;;;;;;18.45;54.03;98112.94;5045718;28;20527;-70
2022/06/11 05:12:24;;;;;;;3.43;3.17;;;;;;;18.54;53.94;98106.53;5053832;28;20500;-70
2022/06/11 05:14:49;;;;;;;4.83;2.97;;;;;;;18.62;53.57;98112.78;5054806;28;20183;-71
2022/06/11 05:17:15;;;;;;;6.83;3.00;;;;;;;18.70;53.38;98115.34;5053698;28;20209;-71
2022/06/11 05:19:40;;;;;;;5.03;3.03;;;;;;;18.79;53.25;98108.94;5051408;28;20221;-70
2022/06/11 05:22:06;;;;;;;6.00;3.37;;;;;;;18.91;53.17;98116.44;5054484;28;20289;-71
2022/06/11 05:24:31;;;;;;;4.50;2.90;;;;;;;19.03;53.03;98115.00;5052017;28;20183;-70
2022/06/11 05:27:03;;;;;;;7.80;2.83;;;;;;;19.17;52.96;98118.66;5054496;28;20179;-71
2022/06/11 05:29:53;;;;;;;3.40;2.80;;;;;;;19.27;52.69;98110.41;5046453;28;20344;-71
2022/06/11 05:32:24;;;;;;;3.17;2.87;;;;;;;19.42;52.63;98118.34;5053711;28;20805;-70
2022/06/11 05:34:49;;;;;;;6.40;2.77;;;;;;;19.58;52.58;98119.94;5055959;28;20433;-70
2022/06/11 05:37:15;;;;;;;5.47;2.63;;;;;;;19.73;52.48;98117.25;5054858;28;20473;-69
2022/06/11 05:39:42;;;;;;;4.20;2.60;;;;;;;19.88;52.21;98122.56;5054285;28;20298;-70
2022/06/11 05:42:08;;;;;;;2.83;2.50;;;;;;;20.02;51.52;98121.66;5051025;28;20634;-71
2022/06/11 05:44:34;;;;;;;3.50;2.37;;;;;;;20.19;51.48;98124.03;5053252;28;20449;-70
2022/06/11 05:47:00;;;;;;;7.60;2.50;;;;;;;20.34;51.33;98127.44;5061858;28;20460;-71
2022/06/11 05:49:31;;;;;;;2.80;2.50;;;;;;;20.49;50.92;98123.88;5051064;28;20227;-70
2022/06/11 05:51:59;;;;;;;2.93;2.43;;;;;;;20.62;50.55;98129.28;5052996;28;20179;-70
2022/06/11 05:54:28;;;;;;;2.77;2.57;;;;;;;20.77;50.09;98121.22;5052186;28;20433;-70
2022/06/11 05:56:55;;;;;;;3.40;2.60;;;;;;;20.92;49.85;98131.75;5053408;28;20453;-70
2022/06/11 05:59:26;;;;;;;2.63;2.20;;;;;;;21.05;49.01;98130.16;5052225;28;20469;-70
2022/06/11 06:01:53;;;;;;;5.03;2.20;;;;;;;21.21;48.97;98124.53;5051990;28;20429;-70
2022/06/11 06:04:18;;;;;;;3.20;2.33;;;;;;;21.36;48.48;98126.22;5059968;28;20487;-70
2022/06/11 06:06:44;;;;;;;2.20;2.00;;;;;;;21.52;48.85;98127.69;5054453;28;20414;-69
2022/06/11 06:09:09;;;;;;;3.97;2.27;;;;;;;21.66;48.40;98129.41;5053245;28;20218;-71
2022/06/11 06:11:35;;;;;;;3.50;2.30;;;;;;;21.82;48.08;98132.75;5053510;28;20543;-70
2022/06/11 06:14:00;;;;;;;5.97;2.20;;;;;;;21.96;47.10;98138.91;5052842;28;20183;-71
2022/06/11 06:16:31;;;;;;;2.50;1.93;;;;;;;22.10;47.01;98135.25;5052880;28;20209;-70
2022/06/11 06:18:59;;;;;;;3.90;2.27;;;;;;;22.21;46.17;98137.28;5052538;28;20289;-71
2022/06/11 06:21:28;;;;;;;5.80;2.43;;;;;;;22.32;45.51;98133.19;5052595;28;20572;-72
2022/06/11 06:23:54;;;;;;;3.00;2.07;;;;;;;22.48;45.56;98140.00;5052911;28;20487;-71
2022/06/11 06:26:20;;;;;;;2.33;1.90;;;;;;;22.66;45.70;98143.91;5052992;28;20429;-71
2022/06/11 06:28:46;;;;;;;5.30;1.93;;;;;;;22.81;45.61;98147.13;5052673;28;20693;-70
2022/06/11 06:31:14;;;;;;;3.40;2.17;;;;;;;22.97;45.15;98142.38;5052664;28;20433;-70
2022/06/11 06:33:39;;;;;;;3.23;2.07;;;;;;;23.11;44.85;98141.31;5052834;28;20194;-70
2022/06/11 06:36:06;;;;;;;7.60;2.30;;;;;;;23.25;43.95;98147.47;5056039;28;20457;-70
2022/06/11 06:38:32;;;;;;;2.90;1.87;;;;;;;23.42;44.13;98144.31;5052180;28;20333;-70
2022/06/11 06:40:58;;;;;;;4.07;2.10;;;;;;;23.58;44.11;98140.31;5050926;28;20425;-70
2022/06/11 06:43:23;;;;;;;6.70;2.37;;;;;;;23.73;42.60;98148.09;5051872;28;20434;-70
2022/06/11 06:45:49;;;;;;;4.13;1.67;;;;;;;23.81;41.67;98144.34;5051302;28;20175;-71
2022/06/11 06:48:15;;;;;;;4.70;1.67;;;;;;;23.97;41.35;98151.06;5052058;28;20214;-70
2022/06/11 06:50:41;;;;;;;3.80;2.00;;;;;;;24.10;40.91;98142.94;5051603;28;20226;-69
2022/06/11 06:53:06;;;;;;;2.80;1.67;;;;;;;24.25;40.31;98145.28;5051978;28;21109;-70
2022/06/11 06:55:32;;;;;;;3.00;1.70;;;;;;;24.38;40.47;98147.06;5050713;28;20190;-70
2022/06/11 06:57:58;;;;;;;6.60;2.20;;;;;;;24.53;40.57;98141.34;5051963;28;20653;-70
2022/06/11 07:00:23;;;;;;;3.00;1.83;;;;;;;24.57;38.74;98147.94;5051827;28;20584;-70
2022/06/11 07:02:49;;;;;;;2.83;1.83;;;;;;;24.71;39.00;98154.00;5058136;28;20179;-69
2022/06/11 07:05:16;;;;;;;4.00;1.90;;;;;;;24.83;39.30;98141.50;5052562;28;20276;-69
2022/06/11 07:07:41;;;;;;;4.57;2.10;;;;;;;24.96;38.62;98147.78;5052203;28;20185;-69
2022/06/11 07:10:09;;;;;;;3.83;1.67;;;;;;;25.10;38.42;98141.22;5051716;28;20941;-70
2022/06/11 07:12:34;;;;;;;9.17;2.03;;;;;;;25.26;37.75;98147.03;5051526;28;20657;-71
2022/06/11 07:15:00;;;;;;;2.83;1.63;;;;;;;25.40;38.24;98145.00;5052151;28;20426;-69
2022/06/11 07:17:29;;;;;;;3.70;1.67;;;;;;;25.54;37.58;98141.13;5051377;28;20205;-69
2022/06/11 07:19:58;;;;;;;6.17;2.27;;;;;;;25.69;37.02;98142.59;5049300;28;20218;-69
2022/06/11 07:22:28;;;;;;;3.50;1.90;;;;;;;25.81;37.31;98132.72;5052348;28;20461;-70
2022/06/11 07:24:53;;;;;;;2.53;1.70;;;;;;;25.95;37.36;98137.91;5052065;28;20436;-71
2022/06/11 07:27:24;;;;;;;3.23;1.80;;;;;;;26.02;36.53;98136.72;5051089;28;20426;-69
2022/06/11 07:30:07;;;;;;;2.50;1.70;;;;;;;26.15;36.96;98134.94;5050348;28;20211;-69
2022/06/11 07:32:35;;;;;;;4.27;1.70;;;;;;;26.27;36.93;98137.63;5042197;28;20434;-69
2022/06/11 07:35:04;;;;;;;2.57;1.90;;;;;;;26.30;36.27;98134.47;5050726;28;20473;-69
2022/06/11 07:37:31;;;;;;;3.03;2.00;;;;;;;26.42;36.08;98135.31;5038654;28;20817;-70
2022/06/11 07:39:57;;;;;;;4.07;1.93;;;;;;;26.57;35.87;98136.72;5050401;28;20456;-70
2022/06/11 07:42:22;;;;;;;4.80;2.00;;;;;;;26.66;35.25;98135.31;5051637;28;20425;-69
2022/06/11 07:44:48;;;;;;;4.80;1.67;;;;;;;26.68;35.26;98139.38;5052062;28;20190;-70
2022/06/11 07:47:13;;;;;;;4.40;1.73;;;;;;;26.82;35.56;98141.88;5069298;28;20190;-69
2022/06/11 07:49:39;;;;;;;5.07;1.60;;;;;;;26.94;35.60;98131.13;5047062;28;20214;-69
2022/06/11 07:52:05;;;;;;;4.93;2.07;;;;;;;27.05;35.55;98138.34;5043627;28;20186;-69
2022/06/11 07:54:33;;;;;;;5.40;2.27;;;;;;;27.19;35.20;98140.78;5069911;28;20178;-72
2022/06/11 07:56:59;;;;;;;5.60;2.17;;;;;;;27.32;34.52;98137.81;5053529;28;20465;-69
2022/06/11 07:59:26;;;;;;;3.00;1.73;;;;;;;27.45;34.12;98147.50;5051068;28;20441;-70
2022/06/11 08:01:51;;;;;;;6.97;1.67;;;;;;;27.54;34.10;98143.34;5051638;28;20198;-72
2022/06/11 08:04:17;;;;;;;4.67;1.90;;;;;;;27.65;33.23;98146.28;5059149;28;20426;-71
2022/06/11 08:06:43;;;;;;;3.20;1.70;;;;;;;27.75;33.26;98141.06;5051231;28;20266;-70
2022/06/11 08:09:08;;;;;;;2.90;1.67;;;;;;;27.88;33.37;98130.00;5049644;28;20297;-70
2022/06/11 08:11:34;;;;;;;5.23;1.63;;;;;;;28.01;33.58;98131.53;5051210;28;20529;-71
2022/06/11 08:14:00;;;;;;;6.83;1.67;;;;;;;28.13;34.41;98136.06;5051539;28;20194;-70
2022/06/11 08:16:25;;;;;;;4.27;1.70;;;;;;;28.25;33.84;98126.03;5051649;28;20194;-69
2022/06/11 08:18:51;;;;;;;2.50;1.90;;;;;;;28.41;33.49;98128.97;5050308;28;20483;-69
2022/06/11 08:21:16;;;;;;;4.07;1.50;;;;;;;28.41;32.25;98134.38;5050802;28;20206;-71
2022/06/11 08:23:42;;;;;;;1.77;1.47;;;;;;;28.54;32.33;98135.94;5051228;28;20638;-70
2022/06/11 08:26:08;;;;;;;6.77;2.40;;;;;;;28.64;32.09;98131.47;5050923;28;20256;-70
2022/06/11 08:28:34;;;;;;;4.73;1.80;;;;;;;28.72;32.05;98137.53;5050830;28;20191;-70
2022/06/11 08:31:04;;;;;;;3.83;1.60;;;;;;;28.74;31.35;98133.53;5051232;28;20183;-71
2022/06/11 08:33:31;;;;;;;3.43;1.57;;;;;;;28.75;31.21;98142.44;5042245;28;20541;-69
2022/06/11 08:35:56;;;;;;;9.03;2.00;;;;;;;28.85;31.28;98139.91;5054372;28;20499;-69
2022/06/11 08:38:22;;;;;;;2.73;1.80;;;;;;;28.89;30.63;98138.31;5052712;28;20437;-70
2022/06/11 08:40:55;;;;;;;3.33;1.73;;;;;;;28.92;30.47;98137.81;5054753;28;20214;-70
2022/06/11 08:43:33;;;;;;;3.90;1.60;;;;;;;29.04;30.47;98145.81;5053450;28;20573;-70
2022/06/11 08:46:07;;;;;;;2.30;1.53;;;;;;;29.17;30.03;98139.22;5052443;28;20456;-70
2022/06/11 08:48:41;;;;;;;5.20;2.10;;;;;;;29.26;29.48;98148.50;5046838;28;20432;-71
2022/06/11 08:51:11;;;;;;;3.00;1.70;;;;;;;29.34;29.31;98144.56;5053461;28;20495;-70
2022/06/11 08:53:38;;;;;;;4.90;1.40;;;;;;;29.45;29.73;98134.72;5054466;28;20429;-71
2022/06/11 08:56:06;;;;;;;5.67;1.70;;;;;;;29.56;29.92;98139.16;5053940;28;20613;-69
2022/06/11 08:58:37;;;;;;;7.83;1.57;;;;;;;29.58;30.25;98138.91;5052750;28;20473;-70
2022/06/11 09:01:30;;;;;;;3.03;1.60;;;;;;;29.74;30.11;98137.16;5053857;28;20524;-70
2022/06/11 09:04:21;;;;;;;3.30;1.70;;;;;;;29.68;29.67;98132.78;5059313;28;20425;-70
2022/06/11 09:06:58;;;;;;;7.27;2.00;;;;;;;29.78;29.73;98130.19;5048258;28;20436;-69
2022/06/11 09:09:46;;;;;;;7.73;1.87;;;;;;;29.74;29.29;98120.97;5053586;28;20507;-71
2022/06/11 09:12:19;;;;;;;2.53;1.53;;;;;;;29.99;30.34;98125.03;5052576;28;20442;-69
2022/06/11 09:15:06;;;;;;;3.90;1.53;;;;;;;30.18;29.54;98123.56;5052710;28;20444;-70
2022/06/11 09:17:53;;;;;;;3.07;1.40;;;;;;;30.36;29.20;98121.53;5048255;28;20453;-71
2022/06/11 09:20:35;;;;;;;3.40;1.80;;;;;;;30.54;30.11;98128.44;5052781;28;21074;-71
2022/06/11 09:23:19;;;;;;;3.00;1.70;;;;;;;30.34;28.94;98118.28;5052280;28;20437;-72
2022/06/11 09:25:58;;;;;;;4.90;2.07;;;;;;;30.17;29.39;98111.13;5047943;28;20460;-70
2022/06/11 09:28:42;;;;;;;4.57;1.73;;;;;;;29.87;28.96;98120.53;5052205;28;20429;-70
2022/06/11 09:31:19;;;;;;;4.90;1.70;;;;;;;29.72;29.53;98123.13;5054426;28;20422;-70
2022/06/11 09:33:53;;;;;;;3.80;2.00;;;;;;;29.52;29.75;98119.13;5052902;28;20451;-70
2022/06/11 09:36:30;;;;;;;4.03;1.60;;;;;;;29.37;29.70;98121.66;5056661;28;20507;-70
2022/06/11 09:39:17;;;;;;;6.13;2.03;;;;;;;29.26;29.52;98124.22;5023895;28;20460;-70
2022/06/11 09:42:21;;;;;;;4.37;1.90;;;;;;;29.39;30.13;98119.53;5069800;28;20895;-70
2022/06/11 09:44:46;;;;;;;3.80;1.77;;;;;;;29.67;29.85;98120.38;5037721;28;20433;-70
2022/06/11 09:47:22;;;;;;;3.90;1.57;;;;;;;29.90;28.96;98121.94;5071210;28;20417;-70
2022/06/11 09:49:55;;;;;;;3.10;1.47;;;;;;;30.15;28.25;98115.16;5051271;28;20703;-72
2022/06/11 09:52:29;;;;;;;5.87;2.03;;;;;;;30.39;28.00;98115.59;5051843;28;20429;-70
2022/06/11 09:55:10;;;;;;;1.73;1.43;;;;;;;30.59;26.96;98117.66;5051959;28;20410;-71
2022/06/11 09:57:43;;;;;;;3.83;2.00;;;;;;;30.69;27.93;98107.94;5044122;28;20967;-70
2022/06/11 10:00:26;;;;;;;4.27;1.90;;;;;;;30.88;27.72;98113.72;5051240;28;20978;-71
2022/06/11 10:03:50;;;;;;;4.80;2.30;;;;;;;31.14;27.41;98109.28;5053291;28;20995;-70
2022/06/11 10:05:58;;;;;;;5.30;1.83;;;;;;;31.35;26.76;98118.31;5043371;28;20441;-70
2022/06/11 10:08:35;;;;;;;5.70;2.07;;;;;;;31.54;27.01;98115.09;5051390;28;20429;-70
2022/06/11 10:11:04;;;;;;;2.57;1.90;;;;;;;31.79;26.91;98110.81;5051741;28;20449;-70
2022/06/11 10:13:39;;;;;;;8.43;1.50;;;;;;;31.87;26.38;98118.44;5007777;28;20433;-70
2022/06/11 10:16:20;;;;;;;4.87;1.90;;;;;;;32.06;26.30;98110.59;5028431;28;20519;-70
2022/06/11 10:18:47;;;;;;;2.27;1.60;;;;;;;31.95;25.91;98119.78;5018219;28;20429;-70
2022/06/11 10:21:15;;;;;;;3.20;1.50;;;;;;;32.05;27.37;98122.50;5049910;28;20773;-71
2022/06/11 10:23:48;;;;;;;5.40;1.73;;;;;;;31.74;26.44;98119.75;5051483;28;20430;-70
2022/06/11 10:26:19;;;;;;;4.90;2.10;;;;;;;31.48;26.55;98119.69;5052218;28;20424;-70
2022/06/11 10:28:53;;;;;;;3.90;1.73;;;;;;;31.26;27.04;98122.59;5051513;28;20436;-70
2022/06/11 10:31:22;;;;;;;4.40;1.90;;;;;;;31.07;26.89;98125.75;5051557;28;20429;-69
2022/06/11 10:33:49;;;;;;;6.50;1.83;;;;;;;30.88;27.56;98121.84;5052662;28;20429;-70
2022/06/11 10:36:22;;;;;;;7.10;1.90;;;;;;;30.77;28.40;98119.09;5055386;28;20473;-71
2022/06/11 10:39:20;;;;;;;3.40;1.60;;;;;;;30.90;28.02;98125.09;5051995;28;20519;-71
2022/06/11 10:42:10;;;;;;;2.93;2.00;;;;;;;30.68;28.21;98123.38;5043055;28;20445;-71
2022/06/11 10:44:40;;;;;;;3.40;1.73;;;;;;;30.46;28.01;98116.19;5045838;28;20414;-70
2022/06/11 10:47:13;;;;;;;6.40;2.13;;;;;;;30.68;27.83;98112.56;5051519;28;20417;-70
2022/06/11 10:49:39;;;;;;;3.63;1.60;;;;;;;30.62;27.59;98113.63;5052145;28;20457;-70
2022/06/11 10:52:15;;;;;;;4.57;1.97;;;;;;;30.78;27.71;98115.31;5051786;28;20448;-70
2022/06/11 10:54:41;;;;;;;3.37;1.90;;;;;;;31.09;27.33;98112.78;5052475;28;20194;-71
2022/06/11 10:57:19;;;;;;;3.87;1.90;;;;;;;31.45;26.72;98100.44;5050597;28;20464;-72
2022/06/11 10:59:51;;;;;;;3.80;1.80;;;;;;;31.65;26.75;98102.38;5049955;28;20203;-71
2022/06/11 11:02:31;;;;;;;2.37;1.60;;;;;;;31.89;27.35;98105.41;5051700;28;20422;-70
2022/06/11 11:04:58;;;;;;;2.93;1.70;;;;;;;31.90;26.43;98104.31;5055258;28;20433;-70
2022/06/11 11:07:24;;;;;;;3.17;1.70;;;;;;;32.00;26.60;98101.63;5051575;28;20461;-70
2022/06/11 11:09:56;;;;;;;5.27;2.13;;;;;;;31.97;27.33;98091.34;5051648;28;20472;-71
2022/06/11 11:12:26;;;;;;;4.93;1.93;;;;;;;31.98;26.23;98090.25;5053738;28;20916;-71
2022/06/11 11:15:24;;;;;;;6.47;2.20;;;;;;;31.98;25.61;98089.41;5050649;28;20426;-71
2022/06/11 11:17:52;;;;;;;3.10;1.90;;;;;;;32.27;26.90;98087.00;5041636;28;20838;-70
2022/06/11 11:20:35;;;;;;;2.97;1.60;;;;;;;32.34;25.81;98085.91;5049506;28;20972;-71
2022/06/11 11:23:09;;;;;;;8.20;1.93;;;;;;;32.37;25.29;98082.66;5050546;28;20672;-71
2022/06/11 11:25:38;;;;;;;2.87;1.63;;;;;;;32.58;25.20;98092.38;5044656;28;20453;-71
2022/06/11 11:28:05;;;;;;;3.70;2.00;;;;;;;32.78;25.00;98094.22;5051289;28;20479;-72
2022/06/11 11:30:34;;;;;;;5.80;1.83;;;;;;;32.88;25.49;98090.69;5049797;28;20437;-72
2022/06/11 11:33:21;;;;;;;2.70;1.67;;;;;;;33.03;25.19;98091.69;5049759;28;20421;-71
2022/06/11 11:35:47;;;;;;;3.10;1.83;;;;;;;33.24;24.81;98081.56;5049667;28;20432;-72
2022/06/11 11:38:21;;;;;;;6.20;1.90;;;;;;;33.36;23.73;98084.75;5050903;28;20433;-71
2022/06/11 11:40:58;;;;;;;7.23;1.73;;;;;;;33.51;23.94;98081.16;5051550;28;20195;-70
2022/06/11 11:43:25;;;;;;;3.07;1.50;;;;;;;33.60;23.77;98081.34;5049919;28;20934;-71
2022/06/11 11:45:56;;;;;;;5.03;1.70;;;;;;;33.72;24.18;98078.28;5048198;28;20425;-71
2022/06/11 11:48:26;;;;;;;5.80;2.20;;;;;;;33.82;24.04;98075.50;5050548;28;20503;-72